Flight Track Log - Related Links

Times and Time Zones

All times are in EDT time to prevent confusion due to time zone crossing. See the N7074Y flight status page for this flight to view local times or setup timezone preferences in your user account.

Time Position Orientation Groundspeed Altitude Reporting Facility
EDT Latitude Longitude Course Direction KTS MPH feet Rate Location/Type
Thu 04:35:19 PM 42.1164 -89.0994 189° South 111 128 3,800  Level Chicago Center
Thu 04:36:21 PM 42.0800 -89.0922 172° South 115 132 4,100 435 Climbing Chicago Center
Thu 04:37:23 PM 42.0433 -89.0867 174° South 132 152 4,700 532 Climbing Chicago Center
Thu 04:38:25 PM 42.0139 -89.0792 169° South 113 130 5,200 194 Climbing Chicago Center
Thu 04:39:00 PM 41.9909 -88.9077 175° South  Level Estimated
Thu 04:39:27 PM 41.9778 -89.0744 174° South 131 151 5,100  Level Chicago Center
Thu 04:40:00 PM 41.9500 -88.9163 189° South  Level FlightAware
Thu 04:41:00 PM 41.9178 -89.0441 175° South  Level FlightAware
Thu 04:44:37 PM 41.7708 -89.0431 175° South 145 167 5,100  Level Chicago Center
Thu 04:46:00 PM 41.7253 -88.9967 143° Southeast  Level Estimated
Thu 04:46:41 PM 41.6836 -89.0225 143° Southeast 150 173 5,100  Level Chicago Center
Thu 04:47:44 PM 41.6533 -88.9878 139° Southeast 149 171 5,100  Level Chicago Center
Thu 04:48:00 PM 41.6294 -89.0095 175° South  Level FlightAware
Thu 04:48:46 PM 41.6206 -88.9542 143° Southeast 150 173 5,100  Level Chicago Center
Thu 04:49:00 PM 41.5882 -89.0046 175° South  Level FlightAware
Thu 04:49:48 PM 41.5881 -88.9231 144° Southeast 146 168 5,100  Level Chicago Center
Thu 04:50:50 PM 41.5517 -88.8833 141° Southeast 143 165 5,100 -48 Level Chicago Center
Thu 04:51:52 PM 41.5197 -88.8517 143° Southeast 143 165 5,000 -48 Descending Chicago Center
Thu 04:52:54 PM 41.4922 -88.8219 141° Southeast 134 154 5,000  Level Chicago Center
Thu 04:53:00 PM 41.4945 -88.7628 143° Southeast  Level Estimated
Thu 04:53:56 PM 41.4611 -88.7903 143° Southeast 138 159 5,000  Level Chicago Center
Thu 04:54:00 PM 41.4616 -88.7296 143° Southeast  Level Estimated
Thu 04:54:58 PM 41.4272 -88.7561 143° Southeast 148 170 5,000  Level Chicago Center
Thu 04:56:00 PM 41.3883 -88.7158 142° Southeast 149 171 5,000  Level Chicago Center
Thu 04:57:02 PM 41.3556 -88.6828 143° Southeast 149 171 5,000  Level Chicago Center
Thu 04:58:04 PM 41.3239 -88.6497 142° Southeast 148 170 5,000  Level Chicago Center
Thu 04:59:06 PM 41.2914 -88.6172 143° Southeast 147 169 5,000  Level Chicago Center
Thu 05:00:09 PM 41.2597 -88.5850 143° Southeast 146 168 5,000  Level Chicago Center
Thu 05:01:11 PM 41.2217 -88.5447 141° Southeast 146 168 5,000  Level Chicago Center
Thu 05:02:13 PM 41.1897 -88.5125 143° Southeast 146 168 5,000  Level Chicago Center
Thu 05:03:15 PM 41.1564 -88.4800 144° Southeast 148 170 5,000  Level Chicago Center
Thu 05:04:17 PM 41.1233 -88.4456 142° Southeast 151 174 5,000  Level Chicago Center
Thu 05:05:19 PM 41.0914 -88.4114 141° Southeast 150 173 5,000  Level Chicago Center
Thu 05:06:21 PM 41.0525 -88.3739 144° Southeast 148 170 5,000  Level Chicago Center
Thu 05:07:23 PM 41.0203 -88.3417 143° Southeast 146 168 5,000 -48 Level Chicago Center
Thu 05:08:25 PM 40.9867 -88.3075 142° Southeast 150 173 4,900 -48 Descending Chicago Center
Thu 05:09:27 PM 40.9536 -88.2728 142° Southeast 152 175 4,900  Level Chicago Center
Thu 05:10:29 PM 40.9206 -88.2397 143° Southeast 151 174 4,900  Level Chicago Center
Thu 05:11:32 PM 40.8811 -88.2006 143° Southeast 150 173 4,900  Level Chicago Center
Thu 05:12:34 PM 40.8475 -88.1675 143° Southeast 150 173 4,900  Level Chicago Center
Thu 05:13:36 PM 40.8150 -88.1331 141° Southeast 151 174 4,900 48 Level Chicago Center
Thu 05:14:38 PM 40.7836 -88.1014 143° Southeast 146 168 5,000 48 Climbing Chicago Center
Thu 05:15:40 PM 40.7506 -88.0689 143° Southeast 147 169 5,000  Level Chicago Center
Thu 05:16:42 PM 40.7119 -88.0300 143° Southeast 147 169 5,000  Level Chicago Center
Thu 05:17:44 PM 40.6786 -87.9975 144° Southeast 148 170 5,000  Level Chicago Center
Thu 05:18:46 PM 40.6464 -87.9647 142° Southeast 148 170 5,000  Level Chicago Center
Thu 05:19:48 PM 40.6139 -87.9333 144° Southeast 146 168 5,000  Level Chicago Center
Thu 05:20:51 PM 40.5825 -87.9006 142° Southeast 146 168 5,000  Level Chicago Center
Thu 05:21:53 PM 40.5436 -87.8628 144° Southeast 145 167 5,000  Level Chicago Center
Thu 05:22:55 PM 40.5111 -87.8308 143° Southeast 146 168 5,000  Level Chicago Center
Thu 05:23:57 PM 40.4786 -87.7972 142° Southeast 147 169 5,000  Level Chicago Center
Thu 05:24:59 PM 40.4453 -87.7650 144° Southeast 148 170 5,000  Level Chicago Center
Thu 05:26:01 PM 40.4128 -87.7336 144° Southeast 147 169 5,000  Level Chicago Center
Thu 05:27:03 PM 40.3739 -87.6947 143° Southeast 148 170 5,000  Level Chicago Center
Thu 05:28:05 PM 40.3408 -87.6625 143° Southeast 148 170 5,000  Level Chicago Center
Thu 05:29:07 PM 40.3069 -87.6281 142° Southeast 152 175 5,000  Level Chicago Center
Thu 05:30:09 PM 40.2728 -87.5958 144° Southeast 153 176 5,000  Level Chicago Center
Thu 05:31:11 PM 40.2406 -87.5650 144° Southeast 148 170 5,000  Level Chicago Center
Thu 05:32:14 PM 40.2000 -87.5250 143° Southeast 151 174 5,000  Level Chicago Center
Thu 05:33:16 PM 40.1717 -87.4967 143° Southeast 149 171 5,000  Level Chicago Center
Thu 05:34:18 PM 40.1328 -87.4594 144° Southeast 146 168 5,000  Level Chicago Center
Thu 05:35:08 PM 40.1056 -87.4322 143° Southeast 146 168 5,000  Level Indianapolis Center
Thu 05:36:10 PM 40.0717 -87.4000 144° Southeast 148 170 5,000  Level Indianapolis Center
Thu 05:37:12 PM 40.0383 -87.3681 144° Southeast 149 171 5,000  Level Indianapolis Center
Thu 05:38:14 PM 40.0042 -87.3342 143° Southeast 151 174 5,000  Level Indianapolis Center
Thu 05:39:16 PM 39.9697 -87.3019 144° Southeast 152 175 5,000  Level Indianapolis Center
Thu 05:40:18 PM 39.9311 -87.2653 144° Southeast 148 170 5,000  Level Indianapolis Center
Thu 05:41:20 PM 39.8992 -87.2331 142° Southeast 147 169 5,000  Level Indianapolis Center
Thu 05:42:22 PM 39.8661 -87.2000 142° Southeast 148 170 5,000  Level Indianapolis Center
Thu 05:43:24 PM 39.8328 -87.1681 144° Southeast 148 170 5,000  Level Indianapolis Center
Thu 05:44:26 PM 39.7994 -87.1358 143° Southeast 150 173 5,000  Level Indianapolis Center
Thu 05:45:28 PM 39.7589 -87.0978 144° Southeast 150 173 5,000  Level Indianapolis Center
Thu 05:46:30 PM 39.7261 -87.0656 143° Southeast 148 170 5,000  Level Indianapolis Center
Thu 05:47:33 PM 39.6933 -87.0339 143° Southeast 148 170 5,000  Level Indianapolis Center
Thu 05:48:35 PM 39.6594 -87.0025 145° Southeast 151 174 5,000  Level Indianapolis Center
Thu 05:49:37 PM 39.6269 -86.9703 143° Southeast 148 170 5,000  Level Indianapolis Center
Thu 05:50:39 PM 39.5861 -86.9317 144° Southeast 151 174 5,000  Level Indianapolis Center
Thu 05:51:41 PM 39.5525 -86.9000 144° Southeast 151 174 5,000  Level Indianapolis Center
Thu 05:52:43 PM 39.5197 -86.8681 143° Southeast 149 171 5,000  Level Indianapolis Center
Thu 05:53:45 PM 39.4869 -86.8361 143° Southeast 149 171 5,000  Level Indianapolis Center
Thu 05:54:47 PM 39.4556 -86.8058 143° Southeast 145 167 5,000  Level Indianapolis Center
Thu 05:55:49 PM 39.4236 -86.7761 144° Southeast 143 165 5,000  Level Indianapolis Center
Thu 05:56:51 PM 39.3844 -86.7386 143° Southeast 145 167 5,000  Level Indianapolis Center
Thu 05:57:53 PM 39.3514 -86.7078 144° Southeast 146 168 5,000  Level Indianapolis Center
Thu 05:58:55 PM 39.3186 -86.6769 144° Southeast 147 169 5,000  Level Indianapolis Center
Thu 05:59:57 PM 39.2867 -86.6464 143° Southeast 145 167 5,000  Level Indianapolis Center
Thu 06:00:59 PM 39.2542 -86.6158 144° Southeast 145 167 5,000  Level Indianapolis Center
Thu 06:02:01 PM 39.2142 -86.5786 144° Southeast 147 169 5,000  Level Indianapolis Center
Thu 06:03:03 PM 39.1814 -86.5464 143° Southeast 148 170 5,000  Level Indianapolis Center
Thu 06:04:05 PM 39.1486 -86.5167 145° Southeast 146 168 5,000  Level Indianapolis Center
Thu 06:05:07 PM 39.1172 -86.4872 144° Southeast 142 163 5,000  Level Indianapolis Center
Thu 06:06:09 PM 39.0850 -86.4575 144° Southeast 142 163 5,000  Level Indianapolis Center
Thu 06:07:11 PM 39.0458 -86.4206 144° Southeast 145 167 5,000  Level Indianapolis Center
Thu 06:08:14 PM 39.0117 -86.3897 145° Southeast 148 170 5,000  Level Indianapolis Center
Thu 06:09:16 PM 38.9781 -86.3572 143° Southeast 150 173 5,000  Level Indianapolis Center
Thu 06:10:18 PM 38.9447 -86.3258 144° Southeast 150 173 5,000  Level Indianapolis Center
Thu 06:11:20 PM 38.9108 -86.2953 145° Southeast 150 173 5,000 48 Level Indianapolis Center
Thu 06:12:22 PM 38.8722 -86.2578 143° Southeast 151 174 5,100 48 Climbing Indianapolis Center
Thu 06:13:24 PM 38.8389 -86.2272 144° Southeast 149 171 5,100  Level Indianapolis Center
Thu 06:14:26 PM 38.8047 -86.1964 145° Southeast 149 171 5,100  Level Indianapolis Center
Thu 06:15:28 PM 38.7714 -86.1639 143° Southeast 149 171 5,100  Level Indianapolis Center
Thu 06:16:30 PM 38.7431 -86.1222 131° Southeast 153 176 5,100  Level Indianapolis Center
Thu 06:17:32 PM 38.7164 -86.0786 128° Southeast 155 178 5,100  Level Indianapolis Center
Thu 06:18:34 PM 38.6942 -86.0381 125° Southeast 146 168 5,100 -290 Level Indianapolis Center
Thu 06:19:36 PM 38.6617 -85.9853 128° Southeast 154 177 4,500 -484 Descending Indianapolis Center
Thu 06:20:38 PM 38.6347 -85.9411 128° Southeast 156 180 4,100 -194 Descending Indianapolis Center
Thu 06:21:40 PM 38.6119 -85.9028 127° Southeast 142 163 4,100  Level Indianapolis Center
Thu 06:22:42 PM 38.5911 -85.8672 127° Southeast 129 148 4,100  Level Indianapolis Center
Thu 06:23:44 PM 38.5700 -85.8297 126° Southeast 128 147 4,100  Level Indianapolis Center
Thu 06:24:46 PM 38.5397 -85.8044 147° Southeast 131 151 4,100  Level Indianapolis Center
Thu 06:25:48 PM 38.5014 -85.7875 161° South 139 160 4,100 -194 Level Indianapolis Center
Thu 06:26:50 PM 38.4572 -85.7675 160° South 140 161 3,700 -435 Descending Indianapolis Center
Thu 06:27:52 PM 38.4192 -85.7511 161° South 141 162 3,200 -290 Descending Indianapolis Center
Thu 06:28:54 PM 38.3831 -85.7342 160° South 141 162 3,100 -145 Descending Indianapolis Center
Thu 06:29:56 PM 38.3503 -85.7186 160° South 136 157 2,900 -145 Descending Indianapolis Center
Thu 06:30:58 PM 38.3169 -85.7017 158° South 135 155 2,800 -97 Descending Indianapolis Center
Thu 06:34:00 PM 38.2577 -85.6854 168° South  Level FlightAware
Thu 06:41:00 PM 38.2280 -85.6637 142° Southeast  Level Estimated

Login

Don't have an account? Register now (free) for customized features, flight alerts, and more!